Time;durP1;ratioP1;P1;durP2;ratioP2;P2;SDS_P1;SDS_P2;PMS_P1;PMS_P2;Temp;Humidity;BMP_temperature;BMP_pressure;BME280_temperature;BME280_humidity;BME280_pressure;Samples;Min_cycle;Max_cycle;Signal;HPM_P1;HPM_P2
2023/11/22 00:02:28;;;;;;;21.90;17.20;;;;;;;-0.44;100.00;101058.34;112144;1245;22017;-84
2023/11/22 00:05:11;;;;;;;21.40;16.40;;;;;;;-0.44;100.00;101066.54;112380;1245;21989;-84
2023/11/22 00:08:02;;;;;;;15.90;14.20;;;;;;;-0.46;100.00;101067.01;113021;1240;21952;-82
2023/11/22 00:10:44;;;;;;;17.60;13.60;;;;;;;-0.49;100.00;101068.65;113040;1240;22966;-83
2023/11/22 00:13:21;;;;;;;16.60;13.00;;;;;;;-0.50;100.00;101065.40;112778;1240;21973;-82
2023/11/22 00:15:56;;;;;;;17.30;12.20;;;;;;;-0.48;100.00;101070.39;113035;1234;23018;-83
2023/11/22 00:18:41;;;;;;;15.10;12.00;;;;;;;-0.51;100.00;101072.73;113071;1241;21954;-81
2023/11/22 00:21:24;;;;;;;18.10;13.60;;;;;;;-0.54;100.00;101077.13;113119;1240;21953;-84
2023/11/22 00:24:04;;;;;;;15.70;12.90;;;;;;;-0.58;100.00;101079.10;112896;1241;22292;-83
2023/11/22 00:26:35;;;;;;;13.00;11.00;;;;;;;-0.59;100.00;101080.95;112918;1241;21951;-83
2023/11/22 00:29:12;;;;;;;15.20;11.50;;;;;;;-0.59;100.00;101081.11;113025;1240;22369;-84
2023/11/22 00:31:53;;;;;;;15.80;11.10;;;;;;;-0.61;100.00;101087.58;113031;1240;21914;-83
2023/11/22 00:34:24;;;;;;;18.20;11.10;;;;;;;-0.63;100.00;101094.73;113252;1232;23008;-82
2023/11/22 00:37:01;;;;;;;16.00;11.20;;;;;;;-0.65;100.00;101102.21;112943;1233;23565;-83
2023/11/22 00:39:39;;;;;;;12.60;10.20;;;;;;;-0.66;100.00;101108.85;113877;1231;22950;-83
2023/11/22 00:42:30;;;;;;;13.40;10.80;;;;;;;-0.66;100.00;101116.04;113456;1233;21943;-85
2023/11/22 00:45:16;;;;;;;13.10;11.10;;;;;;;-0.67;100.00;101118.23;113198;1233;22827;-82
2023/11/22 00:47:53;;;;;;;16.00;10.30;;;;;;;-0.67;100.00;101122.69;113105;1235;22006;-81
2023/11/22 00:50:47;;;;;;;11.60;9.50;;;;;;;-0.69;100.00;101124.70;112543;1245;21991;-83
2023/11/22 00:53:20;;;;;;;19.40;10.50;;;;;;;-0.71;100.00;101132.53;112504;1245;23686;-83
2023/11/22 00:56:06;;;;;;;14.20;11.10;;;;;;;-0.71;100.00;101132.34;112273;1245;22177;-83
2023/11/22 00:58:49;;;;;;;13.70;10.60;;;;;;;-0.70;100.00;101135.78;112408;1245;21951;-83
2023/11/22 01:04:50;;;;;;;18.30;11.00;;;;;;;-0.72;100.00;101131.30;111898;1250;23073;-84
2023/11/22 01:07:29;;;;;;;14.40;10.30;;;;;;;-0.72;100.00;101129.42;112407;1245;21970;-82
2023/11/22 01:10:13;;;;;;;17.00;10.00;;;;;;;-0.71;100.00;101138.15;112812;1239;21950;-81
2023/11/22 01:13:02;;;;;;;18.20;12.60;;;;;;;-0.71;100.00;101140.22;113166;1239;22727;-81
2023/11/22 01:15:48;;;;;;;15.50;10.40;;;;;;;-0.67;100.00;101143.02;113249;1239;21942;-84
2023/11/22 01:18:57;;;;;;;16.40;11.40;;;;;;;-0.64;100.00;101146.33;113240;1238;22381;-84
2023/11/22 01:21:38;;;;;;;19.30;11.60;;;;;;;-0.61;100.00;101146.56;113111;1238;22271;-80
2023/11/22 01:24:23;;;;;;;18.90;12.10;;;;;;;-0.57;100.00;101146.98;113631;1233;23616;-85
2023/11/22 01:27:12;;;;;;;17.90;12.90;;;;;;;-0.55;100.00;101148.04;112667;1232;21959;-83
2023/11/22 01:29:54;;;;;;;14.80;12.60;;;;;;;-0.52;100.00;101144.88;112727;1241;21977;-82
2023/11/22 01:33:03;;;;;;;16.20;13.10;;;;;;;-0.48;100.00;101139.48;112753;1243;23613;-83
2023/11/22 01:35:37;;;;;;;16.20;12.80;;;;;;;-0.44;100.00;101140.58;112873;1243;22722;-85
2023/11/22 01:38:16;;;;;;;16.30;12.50;;;;;;;-0.46;100.00;101142.25;112347;1243;22546;-85
2023/11/22 01:40:58;;;;;;;17.70;13.10;;;;;;;-0.48;100.00;101145.63;111915;1249;23020;-84
2023/11/22 01:43:47;;;;;;;18.20;14.20;;;;;;;-0.48;100.00;101146.81;111957;1240;21968;-83
2023/11/22 01:46:37;;;;;;;18.40;13.00;;;;;;;-0.47;100.00;101151.96;112606;1244;21954;-84
2023/11/22 01:49:21;;;;;;;17.60;12.80;;;;;;;-0.46;100.00;101149.77;112550;1244;21962;-83
2023/11/22 01:51:50;;;;;;;15.50;12.90;;;;;;;-0.46;100.00;101153.71;112574;1242;21948;-83
2023/11/22 01:54:23;;;;;;;16.40;11.70;;;;;;;-0.47;100.00;101150.29;112994;1241;21991;-83
2023/11/22 01:56:58;;;;;;;14.40;11.90;;;;;;;-0.47;100.00;101152.84;112839;1241;23021;-82
2023/11/22 01:59:52;;;;;;;;;;;;;;;;;;;;;
2023/11/22 02:02:38;;;;;;;19.00;12.30;;;;;;;-0.52;100.00;101164.52;112752;1241;22999;-81
2023/11/22 02:05:14;;;;;;;18.50;12.80;;;;;;;-0.54;100.00;101164.98;113203;1233;23651;-82
2023/11/22 02:08:18;;;;;;;19.50;13.60;;;;;;;-0.56;100.00;101163.59;113623;1233;21960;-85
2023/11/22 02:11:05;;;;;;;19.30;13.40;;;;;;;-0.56;100.00;101168.04;113673;1233;21946;-82
2023/11/22 02:13:56;;;;;;;18.10;13.00;;;;;;;-0.55;100.00;101180.87;113051;1239;22719;-83
2023/11/22 02:16:50;;;;;;;21.40;12.70;;;;;;;-0.55;100.00;101189.24;113108;1239;21983;-84
2023/11/22 02:19:36;;;;;;;17.90;12.50;;;;;;;-0.53;100.00;101187.60;113016;1239;22401;-81
2023/11/22 02:22:11;;;;;;;21.20;13.70;;;;;;;-0.50;100.00;101190.73;113173;1239;23005;-83
2023/11/22 02:24:46;;;;;;;19.60;12.80;;;;;;;-0.50;100.00;101195.35;113210;1239;21960;-81
2023/11/22 02:27:33;;;;;;;20.10;13.90;;;;;;;-0.53;100.00;101204.17;113130;1239;21942;-84
2023/11/22 02:30:18;;;;;;;21.20;12.80;;;;;;;-0.57;100.00;101216.56;112668;1244;22060;-84
2023/11/22 02:33:19;;;;;;;17.40;12.60;;;;;;;-0.58;100.00;101217.58;112591;1244;21957;-84
2023/11/22 02:35:57;;;;;;;23.90;15.40;;;;;;;-0.56;100.00;101222.23;112578;1244;22314;-82
2023/11/22 02:38:46;;;;;;;;;;;;;;;;;;;;;
2023/11/22 02:41:18;;;;;;;20.60;15.00;;;;;;;-0.54;100.00;101225.86;112472;1244;21965;-86
2023/11/22 02:43:50;;;;;;;19.10;12.60;;;;;;;-0.52;100.00;101227.98;112509;1244;21948;-84
2023/11/22 02:49:36;;;;;;;18.60;11.20;;;;;;;-0.50;100.00;101235.19;112958;1239;21955;-82
2023/11/22 02:52:14;;;;;;;15.50;10.10;;;;;;;-0.52;100.00;101238.05;113885;1233;24341;-83
2023/11/22 02:54:47;;;;;;;17.60;10.40;;;;;;;-0.58;100.00;101237.08;113633;1234;21918;-83
2023/11/22 02:57:31;;;;;;;14.90;10.30;;;;;;;-0.63;100.00;101238.33;113705;1233;21946;-85
2023/11/22 03:00:13;;;;;;;13.70;10.10;;;;;;;-0.64;100.00;101242.57;113651;1233;23559;-83
2023/11/22 03:02:53;;;;;;;14.90;9.00;;;;;;;-0.64;100.00;101241.21;113602;1233;22707;-82
2023/11/22 03:05:31;;;;;;;14.10;9.60;;;;;;;-0.65;100.00;101246.66;113656;1233;22038;-84
2023/11/22 03:08:07;;;;;;;18.50;10.70;;;;;;;-0.67;100.00;101250.55;113870;1233;21936;-85
2023/11/22 03:10:43;;;;;;;13.70;9.60;;;;;;;-0.65;100.00;101248.88;113805;1233;22033;-81
2023/11/22 03:13:34;;;;;;;16.50;9.60;;;;;;;-0.70;100.00;101254.94;113591;1233;21941;-84
2023/11/22 03:16:04;;;;;;;13.60;9.20;;;;;;;-0.72;100.00;101260.84;113610;1233;21953;-82
2023/11/22 03:18:54;;;;;;;12.70;9.60;;;;;;;-0.74;100.00;101260.63;113800;1233;21959;-85
2023/11/22 03:21:35;;;;;;;14.00;9.40;;;;;;;-0.76;100.00;101266.39;113953;1233;22712;-82
2023/11/22 03:24:18;;;;;;;14.10;9.10;;;;;;;-0.79;100.00;101273.69;113149;1238;21925;-82
2023/11/22 03:27:03;;;;;;;11.70;9.70;;;;;;;-0.82;100.00;101278.23;113278;1238;21926;-82
2023/11/22 03:29:46;;;;;;;9.90;8.20;;;;;;;-0.84;100.00;101279.39;112577;1243;23006;-83
2023/11/22 03:32:17;;;;;;;11.20;9.00;;;;;;;-0.81;100.00;101283.73;112503;1243;21950;-83
2023/11/22 03:34:53;;;;;;;11.80;8.10;;;;;;;-0.79;100.00;101293.34;112432;1243;21971;-84
2023/11/22 03:37:29;;;;;;;12.10;8.60;;;;;;;-0.79;100.00;101296.94;112000;1248;22103;-84
2023/11/22 03:40:11;;;;;;;11.50;8.40;;;;;;;-0.78;100.00;101300.54;112177;1247;21999;-84
2023/11/22 03:42:52;;;;;;;9.80;7.70;;;;;;;-0.80;100.00;101308.89;112397;1244;22459;-82
2023/11/22 03:45:27;;;;;;;12.00;8.20;;;;;;;-0.82;100.00;101309.34;111989;1248;21982;-81
2023/11/22 03:48:08;;;;;;;9.00;7.80;;;;;;;-0.83;100.00;101317.70;112332;1242;22139;-81
2023/11/22 03:51:31;;;;;;;9.60;8.10;;;;;;;-0.84;100.00;101322.98;112887;1242;21984;-81
2023/11/22 03:54:19;;;;;;;8.50;6.80;;;;;;;-0.84;100.00;101328.96;112805;1242;22453;-82
2023/11/22 03:57:04;;;;;;;11.50;8.10;;;;;;;-0.82;100.00;101336.70;112561;1235;22135;-82
2023/11/22 03:59:51;;;;;;;9.20;7.60;;;;;;;-0.82;100.00;101335.83;112539;1242;22721;-83
2023/11/22 04:02:28;;;;;;;9.00;7.00;;;;;;;-0.80;100.00;101337.27;112445;1242;21947;-82
2023/11/22 04:05:04;;;;;;;10.60;7.60;;;;;;;-0.78;100.00;101338.14;113024;1238;21972;-82
2023/11/22 04:07:42;;;;;;;12.10;7.20;;;;;;;-0.78;100.00;101332.52;113003;1238;22663;-82
2023/11/22 04:10:28;;;;;;;11.10;7.50;;;;;;;-0.76;100.00;101329.84;112476;1243;21945;-83
2023/11/22 04:13:06;;;;;;;10.10;8.30;;;;;;;-0.75;100.00;101328.31;112777;1242;23607;-82
2023/11/22 04:15:40;;;;;;;12.00;9.20;;;;;;;-0.83;100.00;101316.66;112486;1244;21970;-84
2023/11/22 04:18:28;;;;;;;11.20;8.80;;;;;;;-0.73;100.00;101333.99;112379;1243;21954;-83
2023/11/22 04:21:35;;;;;;;10.70;8.40;;;;;;;-0.73;100.00;101338.61;112361;1243;21981;-84
2023/11/22 04:24:34;;;;;;;10.00;8.40;;;;;;;-0.73;100.00;101338.95;112520;1243;22829;-82
2023/11/22 04:27:18;;;;;;;13.40;9.00;;;;;;;-0.76;100.00;101335.46;112003;1249;22718;-84
2023/11/22 04:29:51;;;;;;;11.20;8.50;;;;;;;-0.79;100.00;101337.44;112576;1244;23033;-84
2023/11/22 04:32:43;;;;;;;;;;;;;;;;;;;;;
2023/11/22 04:35:34;;;;;;;11.80;9.30;;;;;;;-0.90;100.00;101345.38;112442;1246;22729;-82
2023/11/22 04:38:27;;;;;;;10.80;9.00;;;;;;;-0.95;100.00;101345.94;112611;1246;23588;-84
2023/11/22 04:41:01;;;;;;;12.40;7.90;;;;;;;-0.98;100.00;101348.09;112246;1246;21979;-83
2023/11/22 04:43:44;;;;;;;11.90;9.30;;;;;;;-1.02;100.00;101357.20;111871;1251;21975;-84
2023/11/22 04:46:35;;;;;;;10.20;8.00;;;;;;;-1.09;100.00;101368.14;111754;1251;22001;-83
2023/11/22 04:49:46;;;;;;;11.20;8.60;;;;;;;-1.19;100.00;101374.70;111871;1247;21987;-84
2023/11/22 04:52:19;;;;;;;12.00;7.50;;;;;;;-1.36;100.00;101361.27;111929;1249;21956;-84
2023/11/22 04:54:49;;;;;;;10.60;8.00;;;;;;;-1.35;100.00;101380.08;111886;1248;21983;-83
2023/11/22 04:57:22;;;;;;;9.60;8.10;;;;;;;-1.41;100.00;101383.34;111911;1249;22462;-81
2023/11/22 04:59:57;;;;;;;12.50;8.80;;;;;;;-1.45;100.00;101387.48;111883;1249;21970;-81
2023/11/22 05:02:33;;;;;;;9.80;8.20;;;;;;;-1.50;100.00;101388.89;112524;1242;21969;-84
2023/11/22 05:05:16;;;;;;;13.20;9.30;;;;;;;-1.53;100.00;101388.46;113140;1239;23978;-81
2023/11/22 05:07:59;;;;;;;10.00;7.50;;;;;;;-1.58;100.00;101401.63;113240;1239;21972;-81
2023/11/22 05:10:36;;;;;;;10.40;7.70;;;;;;;-1.64;100.00;101416.83;113420;1233;21936;-83
2023/11/22 05:13:17;;;;;;;12.80;8.40;;;;;;;-1.67;100.00;101422.20;113679;1233;21956;-84
2023/11/22 05:15:53;;;;;;;9.70;8.00;;;;;;;-1.70;100.00;101424.33;113807;1233;21949;-82
2023/11/22 05:18:35;;;;;;;11.80;8.40;;;;;;;-1.75;100.00;101435.60;113564;1234;21947;-84
2023/11/22 05:21:21;;;;;;;11.20;8.40;;;;;;;-1.80;100.00;101440.92;113786;1233;21946;-82
2023/11/22 05:24:05;;;;;;;10.30;7.90;;;;;;;-1.84;100.00;101449.35;113756;1233;21957;-82
2023/11/22 05:27:04;;;;;;;11.30;7.80;;;;;;;-1.90;100.00;101451.89;113723;1234;22177;-84
2023/11/22 05:29:54;;;;;;;10.90;8.50;;;;;;;-1.98;100.00;101446.69;113843;1234;23678;-81
2023/11/22 05:32:44;;;;;;;9.40;7.70;;;;;;;-2.05;100.00;101444.26;112994;1240;22000;-83
2023/11/22 05:35:26;;;;;;;10.40;7.70;;;;;;;-2.09;100.00;101449.60;112849;1241;23788;-83
2023/11/22 05:38:10;;;;;;;9.00;7.10;;;;;;;-2.13;100.00;101454.25;112645;1241;22089;-83
2023/11/22 05:40:51;;;;;;;8.70;7.50;;;;;;;-2.18;100.00;101458.86;112907;1241;22704;-81
2023/11/22 05:43:54;;;;;;;16.80;8.30;;;;;;;-2.23;100.00;101458.70;112809;1241;21972;-82
2023/11/22 05:46:29;;;;;;;12.50;8.30;;;;;;;-2.26;100.00;101469.53;112702;1241;21957;-81
2023/11/22 05:49:19;;;;;;;12.10;7.90;;;;;;;-2.28;100.00;101474.39;112196;1245;21956;-84
2023/11/22 05:52:25;;;;;;;11.30;7.40;;;;;;;-2.33;100.00;101479.19;113213;1239;21965;-83
2023/11/22 05:55:38;;;;;;;10.80;7.50;;;;;;;-2.37;100.00;101494.72;113223;1239;21950;-85
2023/11/22 05:58:11;;;;;;;9.60;7.40;;;;;;;-2.41;100.00;101498.52;112512;1245;21982;-86
2023/11/22 06:00:55;;;;;;;13.70;8.10;;;;;;;-2.43;100.00;101502.90;112548;1245;21962;-84
2023/11/22 06:04:12;;;;;;;15.10;8.80;;;;;;;-2.47;100.00;101515.90;112551;1245;22071;-86
2023/11/22 06:10:30;;;;;;;9.50;8.60;;;;;;;-2.50;100.00;101523.95;113078;1239;23944;-83
2023/11/22 06:13:08;;;;;;;13.30;10.00;;;;;;;-2.56;100.00;101529.05;113337;1234;21950;-86
2023/11/22 06:15:52;;;;;;;13.20;9.20;;;;;;;-2.60;100.00;101543.56;113377;1233;21939;-86
2023/11/22 06:18:33;;;;;;;14.30;11.30;;;;;;;-2.62;100.00;101549.29;113144;1238;21935;-85
2023/11/22 06:21:25;;;;;;;13.10;9.00;;;;;;;-2.63;100.00;101544.65;112705;1235;23068;-84
2023/11/22 06:24:33;;;;;;;11.10;8.00;;;;;;;-2.69;100.00;101541.55;113075;1243;22843;-85
2023/11/22 06:27:33;;;;;;;12.70;8.70;;;;;;;-2.69;100.00;101554.30;112734;1243;21979;-86
2023/11/22 06:30:18;;;;;;;10.50;7.90;;;;;;;-2.69;100.00;101553.63;112750;1236;23017;-82
2023/11/22 06:32:57;;;;;;;12.60;8.80;;;;;;;-2.68;100.00;101551.63;112617;1243;21931;-83
2023/11/22 06:36:25;;;;;;;11.20;8.00;;;;;;;-2.66;100.00;101554.76;112819;1243;21951;-84
2023/11/22 06:42:36;;;;;;;13.70;8.00;;;;;;;-2.71;100.00;101566.50;113630;1233;23708;-83
2023/11/22 06:45:37;;;;;;;12.30;10.10;;;;;;;-2.70;100.00;101575.91;113926;1233;21961;-84
2023/11/22 06:48:43;;;;;;;13.70;8.90;;;;;;;-2.71;100.00;101578.42;113936;1233;21937;-82
2023/11/22 06:51:28;;;;;;;;;;;;;;;-2.76;100.00;101574.17;113789;1234;21901;-85
2023/11/22 06:54:23;;;;;;;12.00;7.60;;;;;;;-2.82;100.00;101580.96;113766;1233;22159;-85
2023/11/22 06:57:13;;;;;;;12.80;9.40;;;;;;;-2.78;100.00;101587.90;108330;1238;6464625;-85
2023/11/22 06:59:53;;;;;;;;;;;;;;;;;;;;;
2023/11/22 07:02:37;;;;;;;16.30;10.80;;;;;;;-2.71;100.00;101585.94;113314;1234;21955;-85
2023/11/22 07:05:11;;;;;;;14.00;10.90;;;;;;;-2.71;100.00;101579.63;113505;1238;22026;-84
2023/11/22 07:07:59;;;;;;;;;;;;;;;;;;;;;
2023/11/22 07:10:52;;;;;;;21.30;13.10;;;;;;;-2.70;100.00;101593.49;113404;1238;21907;-85
2023/11/22 07:13:29;;;;;;;12.50;9.90;;;;;;;-2.72;100.00;101595.63;113432;1239;21990;-82
2023/11/22 07:16:18;;;;;;;13.30;9.30;;;;;;;-2.75;100.00;101604.23;113582;1233;21978;-82
2023/11/22 07:19:29;;;;;;;;;;;;;;;;;;;;;
2023/11/22 07:23:00;;;;;;;15.40;10.80;;;;;;;-2.72;100.00;101625.25;113650;1239;23029;-86
2023/11/22 07:26:07;;;;;;;13.70;9.00;;;;;;;-2.71;100.00;101614.73;113379;1240;21956;-86
2023/11/22 07:28:56;;;;;;;14.20;9.80;;;;;;;-2.68;100.00;101609.05;113269;1239;21967;-83
2023/11/22 07:32:07;;;;;;;13.60;11.30;;;;;;;-2.65;100.00;101616.86;113381;1239;22016;-85
2023/11/22 07:35:43;;;;;;;14.90;9.80;;;;;;;-2.61;100.00;101623.45;113141;1239;22809;-84
2023/11/22 07:38:26;;;;;;;15.30;10.10;;;;;;;-2.60;100.00;101620.25;112812;1243;21945;-87
2023/11/22 07:41:30;;;;;;;14.60;10.30;;;;;;;-2.61;100.00;101614.77;112851;1240;22013;-84
2023/11/22 07:44:18;;;;;;;11.30;8.90;;;;;;;-2.61;100.00;101604.72;112505;1246;21996;-83
2023/11/22 07:47:09;;;;;;;14.10;9.60;;;;;;;-2.66;100.00;101590.05;112733;1246;21997;-84
2023/11/22 07:49:57;;;;;;;13.60;9.50;;;;;;;-2.62;100.00;101573.65;112624;1246;22127;-87
2023/11/22 07:53:01;;;;;;;12.70;10.40;;;;;;;-2.57;100.00;101557.98;111963;1249;21991;-85
2023/11/22 07:55:44;;;;;;;13.20;10.70;;;;;;;-2.52;100.00;101577.08;112015;1246;21961;-88
2023/11/22 07:59:15;;;;;;;16.50;10.70;;;;;;;-2.44;100.00;101593.87;112456;1245;21985;-88
2023/11/22 08:02:11;;;;;;;28.10;14.80;;;;;;;-2.43;100.00;101600.40;112412;1245;21967;-84
2023/11/22 08:05:03;;;;;;;13.30;9.40;;;;;;;-2.34;100.00;101627.48;112563;1245;21958;-85
2023/11/22 08:08:13;;;;;;;13.80;9.60;;;;;;;-2.32;100.00;101630.48;112422;1246;21964;-86
2023/11/22 08:11:14;;;;;;;14.10;9.20;;;;;;;-2.27;100.00;101625.17;112740;1238;21946;-86
2023/11/22 08:14:03;;;;;;;14.10;10.40;;;;;;;-2.21;100.00;101633.77;113239;1241;21967;-85
2023/11/22 08:16:50;;;;;;;12.50;9.70;;;;;;;-2.14;100.00;101648.98;113013;1241;21986;-86
2023/11/22 08:19:48;;;;;;;15.50;10.80;;;;;;;-2.09;100.00;101670.67;112499;1245;22946;-87
2023/11/22 08:22:52;;;;;;;12.20;10.30;;;;;;;-2.02;100.00;101686.60;112391;1244;22080;-86
2023/11/22 08:25:48;;;;;;;16.40;10.10;;;;;;;-1.91;100.00;101694.98;112503;1241;23720;-87
2023/11/22 08:29:06;;;;;;;13.60;9.00;;;;;;;-1.77;100.00;101699.73;112755;1241;22109;-84
2023/11/22 08:32:10;;;;;;;15.30;9.30;;;;;;;-1.77;100.00;101685.91;112859;1241;22986;-86
2023/11/22 08:35:42;;;;;;;;;;;;;;;;;;;;;
2023/11/22 08:39:02;;;;;;;;;;;;;;;;;;;;;
2023/11/22 08:42:38;;;;;;;13.30;9.70;;;;;;;-1.18;100.00;101694.31;111810;1254;21964;-87
2023/11/22 08:46:14;;;;;;;16.80;11.20;;;;;;;-0.97;100.00;101686.60;111615;1251;21998;-83
2023/11/22 08:49:42;;;;;;;13.70;10.60;;;;;;;-0.71;100.00;101684.14;111792;1253;21998;-87
2023/11/22 08:53:00;;;;;;;13.40;9.90;;;;;;;-0.55;100.00;101683.94;111174;1258;23822;-86
2023/11/22 08:55:58;;;;;;;16.60;10.30;;;;;;;-0.49;100.00;101667.00;111210;1258;22009;-89
2023/11/22 08:58:50;;;;;;;18.70;11.00;;;;;;;-0.46;100.00;101653.92;111165;1258;21968;-87
2023/11/22 09:01:42;;;;;;;13.80;10.40;;;;;;;-0.38;100.00;101639.44;111380;1255;21950;-85
2023/11/22 09:04:42;;;;;;;16.90;11.30;;;;;;;-0.32;100.00;101628.30;111627;1255;23623;-86
2023/11/22 09:07:40;;;;;;;19.40;12.10;;;;;;;-0.30;100.00;101628.36;111527;1254;21994;-84
2023/11/22 09:10:23;;;;;;;13.10;9.10;;;;;;;-0.30;100.00;101632.14;111460;1254;22027;-85
2023/11/22 09:13:19;;;;;;;13.00;8.80;;;;;;;-0.31;100.00;101632.77;111624;1254;21969;-86
2023/11/22 09:16:08;;;;;;;10.80;8.80;;;;;;;-0.25;100.00;101638.77;111455;1254;21974;-87
2023/11/22 09:18:42;;;;;;;10.40;8.20;;;;;;;-0.20;100.00;101639.91;111794;1250;21946;-87
2023/11/22 09:21:32;;;;;;;10.90;9.10;;;;;;;-0.11;100.00;101644.61;112039;1250;21992;-86
2023/11/22 09:24:10;;;;;;;11.60;9.70;;;;;;;0.04;100.00;101650.48;111476;1255;21980;-86
2023/11/22 09:26:48;;;;;;;14.80;10.60;;;;;;;0.19;100.00;101649.15;112521;1245;23672;-87
2023/11/22 09:29:38;;;;;;;15.40;10.00;;;;;;;0.29;100.00;101639.46;112404;1246;21913;-88
2023/11/22 09:32:27;;;;;;;19.90;10.10;;;;;;;0.45;100.00;101632.50;112032;1249;21985;-88
2023/11/22 09:35:11;;;;;;;12.30;10.30;;;;;;;0.60;100.00;101631.16;112170;1249;22113;-89
2023/11/22 09:37:52;;;;;;;13.20;9.50;;;;;;;0.74;100.00;101627.89;112136;1249;22044;-88
2023/11/22 09:41:00;;;;;;;12.30;9.60;;;;;;;0.87;100.00;101627.67;112055;1250;21988;-88
2023/11/22 09:43:50;;;;;;;15.00;10.50;;;;;;;1.01;100.00;101632.08;112472;1244;21995;-87
2023/11/22 09:46:34;;;;;;;15.40;10.20;;;;;;;1.17;100.00;101637.23;112672;1243;22969;-85
2023/11/22 09:49:24;;;;;;;12.40;10.30;;;;;;;1.36;100.00;101643.80;113310;1239;22940;-90
2023/11/22 09:52:05;;;;;;;18.80;11.20;;;;;;;1.59;100.00;101645.12;113833;1234;21965;-88
2023/11/22 09:58:54;;;;;;;;;;;;;;;;;;;;;
2023/11/22 10:02:12;;;;;;;;;;;;;;;1.87;100.00;101640.84;112534;1246;22694;-87
2023/11/22 10:05:00;;;;;;;12.70;8.50;;;;;;;1.93;100.00;101636.30;112152;1246;21985;-89
2023/11/22 10:07:58;;;;;;;11.80;9.00;;;;;;;2.06;100.00;101622.99;112228;1246;22110;-89
2023/11/22 10:10:55;;;;;;;17.80;11.00;;;;;;;2.25;100.00;101626.58;112208;1246;21926;-87
2023/11/22 10:13:30;;;;;;;16.70;10.50;;;;;;;2.34;100.00;101628.09;111858;1249;22052;-86
2023/11/22 10:16:22;;;;;;;14.70;11.40;;;;;;;2.45;100.00;101631.54;111763;1253;21975;-82
2023/11/22 10:19:18;;;;;;;14.40;11.20;;;;;;;2.52;100.00;101633.20;111628;1253;22001;-83
2023/11/22 10:21:47;;;;;;;13.10;10.30;;;;;;;2.58;100.00;101630.73;111730;1253;23595;-84
2023/11/22 10:24:36;;;;;;;15.30;10.80;;;;;;;2.62;100.00;101629.06;111625;1255;21996;-83
2023/11/22 10:27:08;;;;;;;16.70;10.60;;;;;;;2.63;100.00;101627.70;111270;1259;23047;-83
2023/11/22 10:29:48;;;;;;;13.10;10.00;;;;;;;2.63;100.00;101633.17;111110;1260;21989;-80
2023/11/22 10:32:20;;;;;;;13.60;9.40;;;;;;;2.70;100.00;101638.80;111499;1254;21947;-86
2023/11/22 10:34:59;;;;;;;12.70;9.50;;;;;;;2.77;100.00;101646.13;112141;1243;21952;-83
2023/11/22 10:37:40;;;;;;;13.60;10.60;;;;;;;2.84;100.00;101654.30;112108;1248;22719;-82
2023/11/22 10:40:18;;;;;;;11.30;9.40;;;;;;;2.91;100.00;101663.71;111834;1251;22015;-82
2023/11/22 10:42:53;;;;;;;10.80;8.90;;;;;;;2.98;100.00;101672.05;111949;1249;22027;-83
2023/11/22 10:45:31;;;;;;;12.80;8.10;;;;;;;3.07;100.00;101666.52;112172;1244;23681;-83
2023/11/22 10:48:08;;;;;;;13.00;8.80;;;;;;;3.27;100.00;101660.77;112563;1244;21946;-84
2023/11/22 10:50:57;;;;;;;11.30;9.30;;;;;;;3.45;100.00;101659.11;112363;1244;21959;-85
2023/11/22 10:53:54;;;;;;;12.90;8.50;;;;;;;3.51;100.00;101653.31;112596;1244;21959;-82
2023/11/22 10:56:31;;;;;;;12.10;9.10;;;;;;;3.57;100.00;101648.40;112943;1239;23581;-82
2023/11/22 10:59:10;;;;;;;11.30;7.90;;;;;;;3.72;100.00;101655.11;113636;1234;23188;-81
2023/11/22 11:01:45;;;;;;;11.80;9.90;;;;;;;3.56;100.00;101660.60;112915;1239;25034;-84
2023/11/22 11:04:49;;;;;;;11.70;9.20;;;;;;;3.38;100.00;101667.60;112482;1244;24216;-84
2023/11/22 11:07:37;;;;;;;14.20;8.70;;;;;;;3.21;100.00;101666.52;112787;1244;22429;-83
2023/11/22 11:10:50;;;;;;;11.80;8.70;;;;;;;3.05;100.00;101669.39;112222;1249;21995;-85
2023/11/22 11:13:39;;;;;;;14.90;9.50;;;;;;;2.88;100.00;101681.55;111774;1254;21996;-84
2023/11/22 11:16:38;;;;;;;18.70;10.70;;;;;;;2.80;100.00;101681.75;111182;1259;23055;-83
2023/11/22 11:19:22;;;;;;;12.30;9.60;;;;;;;2.85;100.00;101669.81;111135;1254;22006;-85
2023/11/22 11:22:07;;;;;;;13.00;9.70;;;;;;;2.76;100.00;101663.30;111125;1260;23229;-85
2023/11/22 11:25:03;;;;;;;13.10;9.20;;;;;;;2.37;100.00;101665.77;111144;1259;22063;-87
2023/11/22 11:27:53;;;;;;;15.60;10.20;;;;;;;2.02;100.00;101668.08;111122;1255;22141;-84
2023/11/22 11:30:53;;;;;;;19.10;11.50;;;;;;;1.81;100.00;101674.39;111101;1259;22989;-83
2023/11/22 11:33:56;;;;;;;12.50;10.80;;;;;;;1.63;100.00;101669.91;111182;1254;23742;-82
2023/11/22 11:36:41;;;;;;;24.40;11.60;;;;;;;1.44;100.00;101657.34;111812;1254;21966;-85
2023/11/22 11:39:38;;;;;;;12.30;9.20;;;;;;;1.36;100.00;101646.20;111718;1248;23587;-84
2023/11/22 11:42:18;;;;;;;14.30;10.00;;;;;;;1.28;100.00;101641.56;112251;1248;23099;-85
2023/11/22 11:45:10;;;;;;;18.20;11.80;;;;;;;1.19;100.00;101643.44;112100;1248;23795;-85
2023/11/22 11:47:39;;;;;;;17.60;11.20;;;;;;;1.14;100.00;101650.70;111933;1246;21994;-85
2023/11/22 11:50:20;;;;;;;13.30;11.10;;;;;;;1.00;100.00;101652.10;112359;1244;23768;-86
2023/11/22 11:52:53;;;;;;;12.40;9.90;;;;;;;1.02;100.00;101671.34;112674;1244;23579;-82
2023/11/22 11:55:32;;;;;;;15.00;11.40;;;;;;;0.93;100.00;101674.40;112652;1244;22006;-84
2023/11/22 11:58:09;;;;;;;15.50;11.80;;;;;;;0.82;100.00;101675.88;112628;1244;21980;-84
2023/11/22 12:00:43;;;;;;;16.40;11.80;;;;;;;0.76;100.00;101670.26;112383;1244;22034;-86
2023/11/22 12:03:20;;;;;;;16.90;11.80;;;;;;;0.73;100.00;101665.54;112980;1238;22349;-84
2023/11/22 12:06:04;;;;;;;15.00;12.80;;;;;;;0.69;100.00;101671.63;113660;1233;23466;-86
2023/11/22 12:08:59;;;;;;;16.40;13.30;;;;;;;0.67;100.00;101682.53;113742;1233;21981;-85
2023/11/22 12:11:44;;;;;;;16.20;11.00;;;;;;;0.62;100.00;101682.58;113337;1239;22228;-81
2023/11/22 12:14:18;;;;;;;18.50;12.40;;;;;;;0.57;100.00;101681.10;113225;1239;23642;-82
2023/11/22 12:16:50;;;;;;;19.90;13.30;;;;;;;0.43;100.00;101669.64;112534;1238;23581;-81
2023/11/22 12:19:28;;;;;;;17.30;11.80;;;;;;;0.55;100.00;101697.84;112544;1243;21960;-82
2023/11/22 12:22:05;;;;;;;19.50;12.60;;;;;;;0.55;100.00;101691.52;112575;1244;23588;-81
2023/11/22 12:24:37;;;;;;;15.90;11.30;;;;;;;0.56;100.00;101699.94;112527;1244;21954;-82
2023/11/22 12:27:12;;;;;;;21.50;14.80;;;;;;;0.56;100.00;101706.95;112581;1244;22013;-82
2023/11/22 12:29:46;;;;;;;17.70;13.10;;;;;;;0.57;100.00;101709.52;111851;1248;23600;-82
2023/11/22 12:32:26;;;;;;;16.10;12.50;;;;;;;0.57;100.00;101698.76;112423;1247;21965;-81
2023/11/22 12:35:03;;;;;;;13.10;11.20;;;;;;;0.53;100.00;101676.71;111938;1246;21961;-81
2023/11/22 12:37:39;;;;;;;17.80;12.80;;;;;;;0.48;100.00;101682.95;111877;1250;23717;-81
2023/11/22 12:40:13;;;;;;;16.90;13.80;;;;;;;0.44;100.00;101686.95;111771;1249;21975;-84
2023/11/22 12:42:51;;;;;;;17.70;13.00;;;;;;;0.41;100.00;101688.23;111852;1250;22317;-78
2023/11/22 12:45:28;;;;;;;18.10;12.90;;;;;;;0.39;100.00;101688.02;111931;1250;21992;-81
2023/11/22 12:48:08;;;;;;;20.20;13.10;;;;;;;0.39;100.00;101676.71;112573;1243;23720;-81
2023/11/22 12:50:43;;;;;;;15.00;11.40;;;;;;;0.37;100.00;101669.65;112689;1247;21972;-81
2023/11/22 12:53:19;;;;;;;15.20;11.80;;;;;;;0.37;100.00;101663.15;112859;1243;22000;-84
2023/11/22 12:55:56;;;;;;;17.70;12.70;;;;;;;0.39;100.00;101661.48;113186;1241;21982;-81
2023/11/22 12:58:37;;;;;;;23.60;13.60;;;;;;;0.43;100.00;101659.52;113424;1241;22962;-81
2023/11/22 13:01:23;;;;;;;28.70;16.70;;;;;;;0.46;100.00;101661.47;113739;1240;21918;-86